sensor_id;sensor_type;location;lat;lon;timestamp;P1;durP1;ratioP1;P2;durP2;ratioP2
48751;SDS011;34544;48.836;9.174;2023-04-25T00:00:00;2.10;;;1.50;;
48751;SDS011;34544;48.836;9.174;2023-04-25T00:02:37;1.50;;;1.40;;
48751;SDS011;34544;48.836;9.174;2023-04-25T00:05:03;2.08;;;1.92;;
48751;SDS011;34544;48.836;9.174;2023-04-25T00:07:29;2.60;;;1.67;;
48751;SDS011;34544;48.836;9.174;2023-04-25T00:09:56;2.60;;;1.60;;
48751;SDS011;34544;48.836;9.174;2023-04-25T00:12:21;5.47;;;1.60;;
48751;SDS011;34544;48.836;9.174;2023-04-25T00:14:48;2.08;;;1.60;;
48751;SDS011;34544;48.836;9.174;2023-04-25T00:17:15;4.05;;;2.03;;
48751;SDS011;34544;48.836;9.174;2023-04-25T00:19:41;1.70;;;1.60;;
48751;SDS011;34544;48.836;9.174;2023-04-25T00:22:09;4.57;;;2.22;;
48751;SDS011;34544;48.836;9.174;2023-04-25T00:24:37;2.25;;;1.90;;
48751;SDS011;34544;48.836;9.174;2023-04-25T00:27:02;2.55;;;1.52;;
48751;SDS011;34544;48.836;9.174;2023-04-25T00:29:28;1.42;;;1.33;;
48751;SDS011;34544;48.836;9.174;2023-04-25T00:31:54;2.60;;;1.10;;
48751;SDS011;34544;48.836;9.174;2023-04-25T00:34:19;2.25;;;1.45;;
48751;SDS011;34544;48.836;9.174;2023-04-25T00:36:45;1.73;;;1.38;;
48751;SDS011;34544;48.836;9.174;2023-04-25T00:39:12;2.10;;;1.40;;
48751;SDS011;34544;48.836;9.174;2023-04-25T00:41:37;2.47;;;1.50;;
48751;SDS011;34544;48.836;9.174;2023-04-25T00:44:04;2.10;;;1.52;;
48751;SDS011;34544;48.836;9.174;2023-04-25T00:46:32;1.98;;;1.67;;
48751;SDS011;34544;48.836;9.174;2023-04-25T00:48:58;1.48;;;1.20;;
48751;SDS011;34544;48.836;9.174;2023-04-25T00:51:23;2.00;;;1.13;;
48751;SDS011;34544;48.836;9.174;2023-04-25T00:53:50;3.17;;;1.52;;
48751;SDS011;34544;48.836;9.174;2023-04-25T00:56:16;2.63;;;1.67;;
48751;SDS011;34544;48.836;9.174;2023-04-25T00:58:42;2.72;;;1.42;;
48751;SDS011;34544;48.836;9.174;2023-04-25T01:01:08;1.63;;;1.42;;
48751;SDS011;34544;48.836;9.174;2023-04-25T01:03:37;2.40;;;1.38;;
48751;SDS011;34544;48.836;9.174;2023-04-25T01:06:07;1.27;;;1.17;;
48751;SDS011;34544;48.836;9.174;2023-04-25T01:08:34;1.92;;;1.48;;
48751;SDS011;34544;48.836;9.174;2023-04-25T01:11:01;4.78;;;1.75;;
48751;SDS011;34544;48.836;9.174;2023-04-25T01:13:27;2.28;;;1.98;;
48751;SDS011;34544;48.836;9.174;2023-04-25T01:15:53;5.05;;;1.58;;
48751;SDS011;34544;48.836;9.174;2023-04-25T01:18:19;1.90;;;1.30;;
48751;SDS011;34544;48.836;9.174;2023-04-25T01:20:45;1.42;;;1.20;;
48751;SDS011;34544;48.836;9.174;2023-04-25T01:23:15;3.92;;;1.50;;
48751;SDS011;34544;48.836;9.174;2023-04-25T01:25:42;2.65;;;1.90;;
48751;SDS011;34544;48.836;9.174;2023-04-25T01:28:08;2.67;;;1.67;;
48751;SDS011;34544;48.836;9.174;2023-04-25T01:30:34;2.35;;;1.80;;
48751;SDS011;34544;48.836;9.174;2023-04-25T01:33:00;3.50;;;1.42;;
48751;SDS011;34544;48.836;9.174;2023-04-25T01:35:27;2.83;;;1.70;;
48751;SDS011;34544;48.836;9.174;2023-04-25T01:37:53;2.00;;;1.60;;
48751;SDS011;34544;48.836;9.174;2023-04-25T01:40:19;2.60;;;1.52;;
48751;SDS011;34544;48.836;9.174;2023-04-25T01:42:47;2.25;;;1.98;;
48751;SDS011;34544;48.836;9.174;2023-04-25T01:45:13;2.78;;;1.48;;
48751;SDS011;34544;48.836;9.174;2023-04-25T01:47:39;1.88;;;1.73;;
48751;SDS011;34544;48.836;9.174;2023-04-25T01:50:05;2.03;;;1.83;;
48751;SDS011;34544;48.836;9.174;2023-04-25T01:52:33;3.92;;;1.90;;
48751;SDS011;34544;48.836;9.174;2023-04-25T01:54:59;2.67;;;2.10;;
48751;SDS011;34544;48.836;9.174;2023-04-25T01:57:28;4.03;;;1.73;;
48751;SDS011;34544;48.836;9.174;2023-04-25T01:59:58;4.70;;;2.47;;
48751;SDS011;34544;48.836;9.174;2023-04-25T02:02:38;1.95;;;1.80;;
48751;SDS011;34544;48.836;9.174;2023-04-25T02:05:06;3.67;;;2.22;;
48751;SDS011;34544;48.836;9.174;2023-04-25T02:07:35;4.13;;;2.00;;
48751;SDS011;34544;48.836;9.174;2023-04-25T02:10:01;1.92;;;1.58;;
48751;SDS011;34544;48.836;9.174;2023-04-25T02:12:31;5.22;;;1.95;;
48751;SDS011;34544;48.836;9.174;2023-04-25T02:15:12;2.58;;;2.15;;
48751;SDS011;34544;48.836;9.174;2023-04-25T02:17:47;3.28;;;2.20;;
48751;SDS011;34544;48.836;9.174;2023-04-25T02:20:13;3.00;;;2.13;;
48751;SDS011;34544;48.836;9.174;2023-04-25T02:22:45;3.08;;;2.03;;
48751;SDS011;34544;48.836;9.174;2023-04-25T02:25:11;6.80;;;3.33;;
48751;SDS011;34544;48.836;9.174;2023-04-25T02:27:37;3.28;;;2.20;;
48751;SDS011;34544;48.836;9.174;2023-04-25T02:30:03;5.15;;;2.58;;
48751;SDS011;34544;48.836;9.174;2023-04-25T02:32:32;5.00;;;2.63;;
48751;SDS011;34544;48.836;9.174;2023-04-25T02:34:59;3.35;;;2.88;;
48751;SDS011;34544;48.836;9.174;2023-04-25T02:37:38;3.10;;;2.22;;
48751;SDS011;34544;48.836;9.174;2023-04-25T02:40:06;2.58;;;2.30;;
48751;SDS011;34544;48.836;9.174;2023-04-25T02:42:32;2.80;;;2.42;;
48751;SDS011;34544;48.836;9.174;2023-04-25T02:44:58;3.13;;;2.75;;
48751;SDS011;34544;48.836;9.174;2023-04-25T02:47:23;3.72;;;2.58;;
48751;SDS011;34544;48.836;9.174;2023-04-25T02:49:49;3.35;;;2.38;;
48751;SDS011;34544;48.836;9.174;2023-04-25T02:52:15;2.75;;;2.50;;
48751;SDS011;34544;48.836;9.174;2023-04-25T02:54:42;3.15;;;2.63;;
48751;SDS011;34544;48.836;9.174;2023-04-25T02:57:08;3.03;;;2.40;;
48751;SDS011;34544;48.836;9.174;2023-04-25T02:59:36;2.72;;;2.20;;
48751;SDS011;34544;48.836;9.174;2023-04-25T03:02:01;9.32;;;2.55;;
48751;SDS011;34544;48.836;9.174;2023-04-25T03:04:27;3.20;;;2.42;;
48751;SDS011;34544;48.836;9.174;2023-04-25T03:06:54;4.00;;;2.80;;
48751;SDS011;34544;48.836;9.174;2023-04-25T03:09:20;2.80;;;2.50;;
48751;SDS011;34544;48.836;9.174;2023-04-25T03:11:46;3.88;;;2.78;;
48751;SDS011;34544;48.836;9.174;2023-04-25T03:14:12;13.63;;;5.18;;
48751;SDS011;34544;48.836;9.174;2023-04-25T03:16:38;2.60;;;2.40;;
48751;SDS011;34544;48.836;9.174;2023-04-25T03:19:04;3.10;;;2.58;;
48751;SDS011;34544;48.836;9.174;2023-04-25T03:21:32;2.72;;;2.30;;
48751;SDS011;34544;48.836;9.174;2023-04-25T03:23:59;3.40;;;2.45;;
48751;SDS011;34544;48.836;9.174;2023-04-25T03:26:28;2.75;;;1.90;;
48751;SDS011;34544;48.836;9.174;2023-04-25T03:28:53;5.93;;;2.80;;
48751;SDS011;34544;48.836;9.174;2023-04-25T03:31:19;4.70;;;2.83;;
48751;SDS011;34544;48.836;9.174;2023-04-25T03:33:45;2.78;;;2.17;;
48751;SDS011;34544;48.836;9.174;2023-04-25T03:36:11;4.03;;;2.42;;
48751;SDS011;34544;48.836;9.174;2023-04-25T03:38:37;3.58;;;2.33;;
48751;SDS011;34544;48.836;9.174;2023-04-25T03:41:07;6.85;;;2.20;;
48751;SDS011;34544;48.836;9.174;2023-04-25T03:43:42;3.38;;;2.53;;
48751;SDS011;34544;48.836;9.174;2023-04-25T03:46:11;3.90;;;2.92;;
48751;SDS011;34544;48.836;9.174;2023-04-25T03:48:39;3.80;;;2.47;;
48751;SDS011;34544;48.836;9.174;2023-04-25T03:51:06;2.67;;;2.47;;
48751;SDS011;34544;48.836;9.174;2023-04-25T03:53:34;2.92;;;2.30;;
48751;SDS011;34544;48.836;9.174;2023-04-25T03:56:23;4.43;;;2.55;;
48751;SDS011;34544;48.836;9.174;2023-04-25T03:58:57;2.88;;;2.25;;
48751;SDS011;34544;48.836;9.174;2023-04-25T04:01:24;6.05;;;3.53;;
48751;SDS011;34544;48.836;9.174;2023-04-25T04:03:51;2.90;;;2.60;;
48751;SDS011;34544;48.836;9.174;2023-04-25T04:06:17;5.35;;;2.45;;
48751;SDS011;34544;48.836;9.174;2023-04-25T04:08:48;3.28;;;2.60;;
48751;SDS011;34544;48.836;9.174;2023-04-25T04:11:13;2.97;;;2.60;;
48751;SDS011;34544;48.836;9.174;2023-04-25T04:13:39;3.92;;;2.65;;
48751;SDS011;34544;48.836;9.174;2023-04-25T04:16:05;5.82;;;3.20;;
48751;SDS011;34544;48.836;9.174;2023-04-25T04:18:31;5.15;;;2.78;;
48751;SDS011;34544;48.836;9.174;2023-04-25T04:20:58;4.45;;;2.95;;
48751;SDS011;34544;48.836;9.174;2023-04-25T04:23:27;4.55;;;2.78;;
48751;SDS011;34544;48.836;9.174;2023-04-25T04:25:54;8.82;;;3.33;;
48751;SDS011;34544;48.836;9.174;2023-04-25T04:28:42;8.63;;;3.28;;
48751;SDS011;34544;48.836;9.174;2023-04-25T04:31:16;3.30;;;3.00;;
48751;SDS011;34544;48.836;9.174;2023-04-25T04:33:45;5.10;;;3.30;;
48751;SDS011;34544;48.836;9.174;2023-04-25T04:36:11;8.73;;;3.25;;
48751;SDS011;34544;48.836;9.174;2023-04-25T04:38:38;5.20;;;3.10;;
48751;SDS011;34544;48.836;9.174;2023-04-25T04:41:04;6.70;;;3.47;;
48751;SDS011;34544;48.836;9.174;2023-04-25T04:43:49;6.28;;;3.05;;
48751;SDS011;34544;48.836;9.174;2023-04-25T04:46:41;5.57;;;3.15;;
48751;SDS011;34544;48.836;9.174;2023-04-25T04:49:28;3.22;;;2.92;;
48751;SDS011;34544;48.836;9.174;2023-04-25T04:52:04;9.07;;;3.72;;
48751;SDS011;34544;48.836;9.174;2023-04-25T04:54:51;4.60;;;2.80;;
48751;SDS011;34544;48.836;9.174;2023-04-25T04:57:37;4.75;;;4.10;;
48751;SDS011;34544;48.836;9.174;2023-04-25T05:00:22;5.10;;;3.53;;
48751;SDS011;34544;48.836;9.174;2023-04-25T05:02:53;5.10;;;2.70;;
48751;SDS011;34544;48.836;9.174;2023-04-25T05:05:38;4.45;;;3.40;;
48751;SDS011;34544;48.836;9.174;2023-04-25T05:08:25;5.05;;;2.83;;
48751;SDS011;34544;48.836;9.174;2023-04-25T05:10:58;6.07;;;3.22;;
48751;SDS011;34544;48.836;9.174;2023-04-25T05:13:47;4.65;;;3.03;;
48751;SDS011;34544;48.836;9.174;2023-04-25T05:16:34;4.95;;;3.17;;
48751;SDS011;34544;48.836;9.174;2023-04-25T05:19:18;9.55;;;3.47;;
48751;SDS011;34544;48.836;9.174;2023-04-25T05:21:53;5.40;;;3.47;;
48751;SDS011;34544;48.836;9.174;2023-04-25T05:24:48;6.85;;;3.97;;
48751;SDS011;34544;48.836;9.174;2023-04-25T05:27:28;5.78;;;4.05;;
48751;SDS011;34544;48.836;9.174;2023-04-25T05:30:07;4.65;;;3.65;;
48751;SDS011;34544;48.836;9.174;2023-04-25T05:32:45;7.82;;;4.78;;
48751;SDS011;34544;48.836;9.174;2023-04-25T05:35:12;6.45;;;3.85;;
48751;SDS011;34544;48.836;9.174;2023-04-25T05:37:43;5.60;;;4.22;;
48751;SDS011;34544;48.836;9.174;2023-04-25T05:40:11;6.93;;;4.10;;
48751;SDS011;34544;48.836;9.174;2023-04-25T05:43:00;6.07;;;3.90;;
48751;SDS011;34544;48.836;9.174;2023-04-25T05:45:43;5.35;;;2.97;;
48751;SDS011;34544;48.836;9.174;2023-04-25T05:48:30;4.80;;;3.92;;
48751;SDS011;34544;48.836;9.174;2023-04-25T05:50:59;10.00;;;3.45;;
48751;SDS011;34544;48.836;9.174;2023-04-25T05:53:44;4.75;;;3.65;;
48751;SDS011;34544;48.836;9.174;2023-04-25T05:56:12;4.28;;;2.97;;
48751;SDS011;34544;48.836;9.174;2023-04-25T05:58:39;4.53;;;3.67;;
48751;SDS011;34544;48.836;9.174;2023-04-25T06:01:05;4.13;;;3.05;;
48751;SDS011;34544;48.836;9.174;2023-04-25T06:03:31;5.35;;;3.70;;
48751;SDS011;34544;48.836;9.174;2023-04-25T06:05:57;6.38;;;3.80;;
48751;SDS011;34544;48.836;9.174;2023-04-25T06:08:25;4.13;;;3.72;;
48751;SDS011;34544;48.836;9.174;2023-04-25T06:10:50;8.02;;;4.25;;
48751;SDS011;34544;48.836;9.174;2023-04-25T06:13:17;4.43;;;3.95;;
48751;SDS011;34544;48.836;9.174;2023-04-25T06:15:43;4.65;;;3.75;;
48751;SDS011;34544;48.836;9.174;2023-04-25T06:18:09;4.63;;;3.35;;
48751;SDS011;34544;48.836;9.174;2023-04-25T06:20:35;7.13;;;3.30;;
48751;SDS011;34544;48.836;9.174;2023-04-25T06:23:01;4.28;;;3.78;;
48751;SDS011;34544;48.836;9.174;2023-04-25T06:25:37;3.60;;;3.30;;
48751;SDS011;34544;48.836;9.174;2023-04-25T06:28:03;6.13;;;3.78;;
48751;SDS011;34544;48.836;9.174;2023-04-25T06:30:29;6.47;;;4.28;;
48751;SDS011;34544;48.836;9.174;2023-04-25T06:33:01;4.60;;;3.95;;
48751;SDS011;34544;48.836;9.174;2023-04-25T06:35:28;6.25;;;3.88;;
48751;SDS011;34544;48.836;9.174;2023-04-25T06:37:54;3.50;;;3.20;;
48751;SDS011;34544;48.836;9.174;2023-04-25T06:40:21;5.80;;;3.53;;
48751;SDS011;34544;48.836;9.174;2023-04-25T06:42:47;4.03;;;3.15;;
48751;SDS011;34544;48.836;9.174;2023-04-25T06:45:31;4.55;;;3.53;;
48751;SDS011;34544;48.836;9.174;2023-04-25T06:47:57;6.05;;;3.63;;
48751;SDS011;34544;48.836;9.174;2023-04-25T06:50:23;4.63;;;3.47;;
48751;SDS011;34544;48.836;9.174;2023-04-25T06:52:49;5.20;;;3.65;;
48751;SDS011;34544;48.836;9.174;2023-04-25T06:55:17;6.18;;;3.40;;
48751;SDS011;34544;48.836;9.174;2023-04-25T06:58:00;6.15;;;4.20;;
48751;SDS011;34544;48.836;9.174;2023-04-25T07:01:01;4.53;;;3.83;;
48751;SDS011;34544;48.836;9.174;2023-04-25T07:03:27;4.93;;;3.72;;
48751;SDS011;34544;48.836;9.174;2023-04-25T07:05:58;4.05;;;3.58;;
48751;SDS011;34544;48.836;9.174;2023-04-25T07:08:24;4.07;;;3.45;;
48751;SDS011;34544;48.836;9.174;2023-04-25T07:10:50;4.50;;;3.97;;
48751;SDS011;34544;48.836;9.174;2023-04-25T07:13:15;3.70;;;3.40;;
48751;SDS011;34544;48.836;9.174;2023-04-25T07:15:41;4.20;;;3.80;;
48751;SDS011;34544;48.836;9.174;2023-04-25T07:18:07;6.18;;;3.95;;
48751;SDS011;34544;48.836;9.174;2023-04-25T07:20:33;6.72;;;3.63;;
48751;SDS011;34544;48.836;9.174;2023-04-25T07:22:58;5.30;;;3.80;;
48751;SDS011;34544;48.836;9.174;2023-04-25T07:25:24;7.40;;;4.47;;
48751;SDS011;34544;48.836;9.174;2023-04-25T07:27:50;7.53;;;4.53;;
48751;SDS011;34544;48.836;9.174;2023-04-25T07:30:18;4.90;;;4.40;;
48751;SDS011;34544;48.836;9.174;2023-04-25T07:32:43;4.60;;;4.03;;
48751;SDS011;34544;48.836;9.174;2023-04-25T07:35:10;5.07;;;4.32;;
48751;SDS011;34544;48.836;9.174;2023-04-25T07:37:36;6.43;;;4.25;;
48751;SDS011;34544;48.836;9.174;2023-04-25T07:42:35;6.32;;;4.40;;
48751;SDS011;34544;48.836;9.174;2023-04-25T07:45:02;5.07;;;4.20;;
48751;SDS011;34544;48.836;9.174;2023-04-25T07:47:28;5.30;;;4.72;;
48751;SDS011;34544;48.836;9.174;2023-04-25T07:49:54;5.85;;;4.53;;
48751;SDS011;34544;48.836;9.174;2023-04-25T07:52:21;5.15;;;4.32;;
48751;SDS011;34544;48.836;9.174;2023-04-25T07:54:52;5.90;;;3.92;;
48751;SDS011;34544;48.836;9.174;2023-04-25T07:57:23;7.32;;;4.97;;
48751;SDS011;34544;48.836;9.174;2023-04-25T07:59:51;5.25;;;4.57;;
48751;SDS011;34544;48.836;9.174;2023-04-25T08:02:18;6.05;;;4.70;;
48751;SDS011;34544;48.836;9.174;2023-04-25T08:04:45;5.22;;;4.28;;
48751;SDS011;34544;48.836;9.174;2023-04-25T08:07:16;4.38;;;3.72;;
48751;SDS011;34544;48.836;9.174;2023-04-25T08:09:52;4.97;;;3.60;;
48751;SDS011;34544;48.836;9.174;2023-04-25T08:12:25;5.47;;;3.95;;
48751;SDS011;34544;48.836;9.174;2023-04-25T08:14:51;5.75;;;4.15;;
48751;SDS011;34544;48.836;9.174;2023-04-25T08:17:17;5.40;;;4.28;;
48751;SDS011;34544;48.836;9.174;2023-04-25T08:19:44;5.45;;;4.15;;
48751;SDS011;34544;48.836;9.174;2023-04-25T08:22:17;6.10;;;4.53;;
48751;SDS011;34544;48.836;9.174;2023-04-25T08:24:50;7.72;;;4.60;;
48751;SDS011;34544;48.836;9.174;2023-04-25T08:27:17;7.38;;;4.32;;
48751;SDS011;34544;48.836;9.174;2023-04-25T08:29:43;4.88;;;4.05;;
48751;SDS011;34544;48.836;9.174;2023-04-25T08:32:09;4.72;;;4.28;;
48751;SDS011;34544;48.836;9.174;2023-04-25T08:34:39;5.90;;;4.25;;
48751;SDS011;34544;48.836;9.174;2023-04-25T08:37:08;7.43;;;4.30;;
48751;SDS011;34544;48.836;9.174;2023-04-25T08:39:39;4.80;;;3.80;;
48751;SDS011;34544;48.836;9.174;2023-04-25T08:42:27;6.60;;;4.68;;
48751;SDS011;34544;48.836;9.174;2023-04-25T08:44:54;5.15;;;4.28;;
48751;SDS011;34544;48.836;9.174;2023-04-25T08:47:24;6.45;;;5.07;;
48751;SDS011;34544;48.836;9.174;2023-04-25T08:49:56;4.88;;;3.58;;
48751;SDS011;34544;48.836;9.174;2023-04-25T08:52:23;5.55;;;4.82;;
48751;SDS011;34544;48.836;9.174;2023-04-25T08:54:51;5.22;;;4.68;;
48751;SDS011;34544;48.836;9.174;2023-04-25T08:57:18;8.43;;;4.25;;
48751;SDS011;34544;48.836;9.174;2023-04-25T08:59:47;8.38;;;4.88;;
48751;SDS011;34544;48.836;9.174;2023-04-25T09:02:14;6.00;;;4.63;;
48751;SDS011;34544;48.836;9.174;2023-04-25T09:04:43;8.07;;;4.60;;
48751;SDS011;34544;48.836;9.174;2023-04-25T09:07:09;6.15;;;4.55;;
48751;SDS011;34544;48.836;9.174;2023-04-25T09:09:36;7.60;;;4.47;;
48751;SDS011;34544;48.836;9.174;2023-04-25T09:12:01;7.25;;;5.47;;
48751;SDS011;34544;48.836;9.174;2023-04-25T09:14:27;5.75;;;5.13;;
48751;SDS011;34544;48.836;9.174;2023-04-25T09:17:07;10.65;;;6.28;;
48751;SDS011;34544;48.836;9.174;2023-04-25T09:19:45;10.60;;;5.45;;
48751;SDS011;34544;48.836;9.174;2023-04-25T09:22:24;9.00;;;6.05;;
48751;SDS011;34544;48.836;9.174;2023-04-25T09:24:50;6.93;;;6.22;;
48751;SDS011;34544;48.836;9.174;2023-04-25T09:27:20;5.38;;;4.75;;
48751;SDS011;34544;48.836;9.174;2023-04-25T09:29:58;5.93;;;5.28;;
48751;SDS011;34544;48.836;9.174;2023-04-25T09:32:32;7.03;;;5.20;;
48751;SDS011;34544;48.836;9.174;2023-04-25T09:34:57;6.63;;;5.93;;
48751;SDS011;34544;48.836;9.174;2023-04-25T09:37:29;4.88;;;4.32;;
48751;SDS011;34544;48.836;9.174;2023-04-25T09:40:04;4.22;;;3.83;;
48751;SDS011;34544;48.836;9.174;2023-04-25T09:42:35;4.10;;;3.72;;
48751;SDS011;34544;48.836;9.174;2023-04-25T09:45:00;3.55;;;3.25;;
48751;SDS011;34544;48.836;9.174;2023-04-25T09:47:36;7.18;;;3.85;;
48751;SDS011;34544;48.836;9.174;2023-04-25T09:50:04;6.75;;;4.32;;
48751;SDS011;34544;48.836;9.174;2023-04-25T09:52:50;4.75;;;4.15;;
48751;SDS011;34544;48.836;9.174;2023-04-25T09:55:30;5.72;;;5.13;;
48751;SDS011;34544;48.836;9.174;2023-04-25T09:57:59;4.28;;;3.88;;
48751;SDS011;34544;48.836;9.174;2023-04-25T10:00:32;3.55;;;3.25;;
48751;SDS011;34544;48.836;9.174;2023-04-25T10:03:11;4.40;;;3.92;;
48751;SDS011;34544;48.836;9.174;2023-04-25T10:05:54;5.50;;;4.75;;
48751;SDS011;34544;48.836;9.174;2023-04-25T10:08:21;5.18;;;4.45;;
48751;SDS011;34544;48.836;9.174;2023-04-25T10:10:48;6.05;;;4.80;;
48751;SDS011;34544;48.836;9.174;2023-04-25T10:13:15;7.55;;;5.40;;
48751;SDS011;34544;48.836;9.174;2023-04-25T10:18:44;6.35;;;4.55;;
48751;SDS011;34544;48.836;9.174;2023-04-25T10:21:10;5.88;;;3.60;;
48751;SDS011;34544;48.836;9.174;2023-04-25T10:23:36;5.25;;;4.30;;
48751;SDS011;34544;48.836;9.174;2023-04-25T10:26:02;6.60;;;4.15;;
48751;SDS011;34544;48.836;9.174;2023-04-25T10:28:29;5.35;;;3.60;;
48751;SDS011;34544;48.836;9.174;2023-04-25T10:31:15;3.72;;;2.70;;
48751;SDS011;34544;48.836;9.174;2023-04-25T10:33:42;2.40;;;1.85;;
48751;SDS011;34544;48.836;9.174;2023-04-25T10:36:11;4.05;;;3.20;;
48751;SDS011;34544;48.836;9.174;2023-04-25T10:38:38;7.20;;;3.75;;
48751;SDS011;34544;48.836;9.174;2023-04-25T10:41:05;5.10;;;4.07;;
48751;SDS011;34544;48.836;9.174;2023-04-25T10:43:34;6.82;;;4.43;;
48751;SDS011;34544;48.836;9.174;2023-04-25T10:48:51;5.50;;;4.05;;
48751;SDS011;34544;48.836;9.174;2023-04-25T10:56:32;5.03;;;4.00;;
48751;SDS011;34544;48.836;9.174;2023-04-25T10:59:16;5.20;;;4.10;;
48751;SDS011;34544;48.836;9.174;2023-04-25T11:01:43;5.68;;;4.00;;
48751;SDS011;34544;48.836;9.174;2023-04-25T11:04:29;5.05;;;3.53;;
48751;SDS011;34544;48.836;9.174;2023-04-25T11:09:43;4.20;;;2.90;;
48751;SDS011;34544;48.836;9.174;2023-04-25T11:12:10;4.32;;;3.63;;
48751;SDS011;34544;48.836;9.174;2023-04-25T11:14:37;6.22;;;4.00;;
48751;SDS011;34544;48.836;9.174;2023-04-25T11:17:03;6.07;;;3.83;;
48751;SDS011;34544;48.836;9.174;2023-04-25T11:19:29;3.30;;;2.97;;
48751;SDS011;34544;48.836;9.174;2023-04-25T11:21:59;4.65;;;3.67;;
48751;SDS011;34544;48.836;9.174;2023-04-25T11:24:31;3.83;;;2.80;;
48751;SDS011;34544;48.836;9.174;2023-04-25T11:27:01;3.42;;;3.13;;
48751;SDS011;34544;48.836;9.174;2023-04-25T11:29:30;3.88;;;2.70;;
48751;SDS011;34544;48.836;9.174;2023-04-25T11:31:56;3.20;;;2.67;;
48751;SDS011;34544;48.836;9.174;2023-04-25T11:34:23;3.75;;;2.80;;
48751;SDS011;34544;48.836;9.174;2023-04-25T11:36:50;3.55;;;2.88;;
48751;SDS011;34544;48.836;9.174;2023-04-25T11:39:17;3.08;;;2.78;;
48751;SDS011;34544;48.836;9.174;2023-04-25T11:41:44;4.10;;;3.00;;
48751;SDS011;34544;48.836;9.174;2023-04-25T11:44:09;2.95;;;2.70;;
48751;SDS011;34544;48.836;9.174;2023-04-25T11:46:36;3.38;;;3.03;;
48751;SDS011;34544;48.836;9.174;2023-04-25T11:49:01;7.32;;;3.55;;
48751;SDS011;34544;48.836;9.174;2023-04-25T11:51:27;6.70;;;3.45;;
48751;SDS011;34544;48.836;9.174;2023-04-25T11:53:53;5.78;;;3.30;;
48751;SDS011;34544;48.836;9.174;2023-04-25T11:56:19;5.28;;;3.53;;
48751;SDS011;34544;48.836;9.174;2023-04-25T11:58:55;4.45;;;3.10;;
48751;SDS011;34544;48.836;9.174;2023-04-25T12:01:32;5.82;;;3.85;;
48751;SDS011;34544;48.836;9.174;2023-04-25T12:04:10;7.18;;;3.05;;
48751;SDS011;34544;48.836;9.174;2023-04-25T12:06:43;4.82;;;3.30;;
48751;SDS011;34544;48.836;9.174;2023-04-25T12:09:13;3.78;;;2.90;;
48751;SDS011;34544;48.836;9.174;2023-04-25T12:11:41;3.65;;;3.28;;
48751;SDS011;34544;48.836;9.174;2023-04-25T12:14:10;6.72;;;3.33;;
48751;SDS011;34544;48.836;9.174;2023-04-25T12:16:40;5.15;;;3.40;;
48751;SDS011;34544;48.836;9.174;2023-04-25T12:19:09;7.45;;;4.55;;
48751;SDS011;34544;48.836;9.174;2023-04-25T12:21:38;5.22;;;4.10;;
48751;SDS011;34544;48.836;9.174;2023-04-25T12:24:17;5.88;;;3.67;;
48751;SDS011;34544;48.836;9.174;2023-04-25T12:26:52;9.63;;;4.22;;
48751;SDS011;34544;48.836;9.174;2023-04-25T12:29:23;10.00;;;5.15;;
48751;SDS011;34544;48.836;9.174;2023-04-25T12:31:50;6.45;;;5.65;;
48751;SDS011;34544;48.836;9.174;2023-04-25T12:34:17;6.50;;;5.47;;
48751;SDS011;34544;48.836;9.174;2023-04-25T12:36:43;8.85;;;6.18;;
48751;SDS011;34544;48.836;9.174;2023-04-25T12:39:13;6.40;;;5.47;;
48751;SDS011;34544;48.836;9.174;2023-04-25T12:41:40;7.82;;;5.05;;
48751;SDS011;34544;48.836;9.174;2023-04-25T12:44:06;7.82;;;4.65;;
48751;SDS011;34544;48.836;9.174;2023-04-25T12:46:32;5.80;;;5.20;;
48751;SDS011;34544;48.836;9.174;2023-04-25T12:48:58;5.75;;;4.90;;
48751;SDS011;34544;48.836;9.174;2023-04-25T12:51:23;10.18;;;5.22;;
48751;SDS011;34544;48.836;9.174;2023-04-25T12:53:50;10.35;;;5.18;;
48751;SDS011;34544;48.836;9.174;2023-04-25T12:56:17;10.32;;;4.85;;
48751;SDS011;34544;48.836;9.174;2023-04-25T12:58:43;7.88;;;5.30;;
48751;SDS011;34544;48.836;9.174;2023-04-25T13:01:09;8.05;;;4.45;;
48751;SDS011;34544;48.836;9.174;2023-04-25T13:03:35;7.95;;;5.28;;
48751;SDS011;34544;48.836;9.174;2023-04-25T13:06:00;8.85;;;4.82;;
48751;SDS011;34544;48.836;9.174;2023-04-25T13:08:26;11.93;;;5.32;;
48751;SDS011;34544;48.836;9.174;2023-04-25T13:10:52;8.35;;;5.53;;
48751;SDS011;34544;48.836;9.174;2023-04-25T13:13:17;8.60;;;4.80;;
48751;SDS011;34544;48.836;9.174;2023-04-25T13:15:43;7.20;;;4.75;;
48751;SDS011;34544;48.836;9.174;2023-04-25T13:18:08;8.43;;;5.30;;
48751;SDS011;34544;48.836;9.174;2023-04-25T13:20:34;7.72;;;5.60;;
48751;SDS011;34544;48.836;9.174;2023-04-25T13:23:00;8.25;;;6.00;;
48751;SDS011;34544;48.836;9.174;2023-04-25T13:25:26;7.13;;;5.32;;
48751;SDS011;34544;48.836;9.174;2023-04-25T13:27:51;9.73;;;6.10;;
48751;SDS011;34544;48.836;9.174;2023-04-25T13:30:17;9.80;;;6.13;;
48751;SDS011;34544;48.836;9.174;2023-04-25T13:32:43;8.05;;;5.95;;
48751;SDS011;34544;48.836;9.174;2023-04-25T13:35:10;13.20;;;7.10;;
48751;SDS011;34544;48.836;9.174;2023-04-25T13:37:38;9.57;;;7.45;;
48751;SDS011;34544;48.836;9.174;2023-04-25T13:40:04;15.80;;;9.05;;
48751;SDS011;34544;48.836;9.174;2023-04-25T13:42:33;8.65;;;7.43;;
48751;SDS011;34544;48.836;9.174;2023-04-25T13:45:00;13.90;;;8.77;;
48751;SDS011;34544;48.836;9.174;2023-04-25T13:47:26;11.40;;;8.60;;
48751;SDS011;34544;48.836;9.174;2023-04-25T13:49:52;11.48;;;8.85;;
48751;SDS011;34544;48.836;9.174;2023-04-25T13:52:18;11.52;;;7.88;;
48751;SDS011;34544;48.836;9.174;2023-04-25T13:54:44;15.63;;;8.95;;
48751;SDS011;34544;48.836;9.174;2023-04-25T13:57:09;9.65;;;7.60;;
48751;SDS011;34544;48.836;9.174;2023-04-25T13:59:36;13.90;;;8.23;;
48751;SDS011;34544;48.836;9.174;2023-04-25T14:02:02;9.40;;;7.10;;
48751;SDS011;34544;48.836;9.174;2023-04-25T14:04:28;12.00;;;7.18;;
48751;SDS011;34544;48.836;9.174;2023-04-25T14:06:56;14.45;;;7.40;;
48751;SDS011;34544;48.836;9.174;2023-04-25T14:09:21;8.65;;;6.20;;
48751;SDS011;34544;48.836;9.174;2023-04-25T14:11:53;9.75;;;7.03;;
48751;SDS011;34544;48.836;9.174;2023-04-25T14:14:20;8.88;;;6.57;;
48751;SDS011;34544;48.836;9.174;2023-04-25T14:16:47;8.60;;;6.65;;
48751;SDS011;34544;48.836;9.174;2023-04-25T14:19:13;7.63;;;5.53;;
48751;SDS011;34544;48.836;9.174;2023-04-25T14:21:40;6.18;;;5.50;;
48751;SDS011;34544;48.836;9.174;2023-04-25T14:24:05;5.90;;;4.93;;
48751;SDS011;34544;48.836;9.174;2023-04-25T14:26:33;7.85;;;4.38;;
48751;SDS011;34544;48.836;9.174;2023-04-25T14:28:59;7.50;;;5.30;;
48751;SDS011;34544;48.836;9.174;2023-04-25T14:31:25;5.30;;;4.20;;
48751;SDS011;34544;48.836;9.174;2023-04-25T14:33:51;5.63;;;5.03;;
48751;SDS011;34544;48.836;9.174;2023-04-25T14:36:16;5.97;;;4.68;;
48751;SDS011;34544;48.836;9.174;2023-04-25T14:38:42;7.35;;;4.70;;
48751;SDS011;34544;48.836;9.174;2023-04-25T14:41:08;7.22;;;4.65;;
48751;SDS011;34544;48.836;9.174;2023-04-25T14:43:34;5.68;;;4.47;;
48751;SDS011;34544;48.836;9.174;2023-04-25T14:46:01;10.18;;;4.88;;
48751;SDS011;34544;48.836;9.174;2023-04-25T14:48:27;8.55;;;4.82;;
48751;SDS011;34544;48.836;9.174;2023-04-25T14:50:53;4.38;;;3.97;;
48751;SDS011;34544;48.836;9.174;2023-04-25T14:53:19;7.47;;;4.80;;
48751;SDS011;34544;48.836;9.174;2023-04-25T14:55:44;21.45;;;4.53;;
48751;SDS011;34544;48.836;9.174;2023-04-25T14:58:10;5.88;;;4.50;;
48751;SDS011;34544;48.836;9.174;2023-04-25T15:00:36;7.78;;;4.50;;
48751;SDS011;34544;48.836;9.174;2023-04-25T15:03:03;8.27;;;5.72;;
48751;SDS011;34544;48.836;9.174;2023-04-25T15:05:32;10.65;;;5.22;;
48751;SDS011;34544;48.836;9.174;2023-04-25T15:07:59;7.32;;;4.82;;
48751;SDS011;34544;48.836;9.174;2023-04-25T15:10:26;5.20;;;4.07;;
48751;SDS011;34544;48.836;9.174;2023-04-25T15:12:52;6.75;;;3.70;;
48751;SDS011;34544;48.836;9.174;2023-04-25T15:15:18;6.65;;;4.07;;